Airfield :
LOGIN :

Register | Disclaimer

   EN    FR    IT 

 










Legend :    VFR   Marginal VFR   IFR   Intensive IFR   Very Intensive IFR
Visi :
Ceiling :
>= 8 km
>= 3000ft
5 to 8 km
1000 to 3000 ft
1500m to 5 km
500 to 1000 ft
800 to 1500m
200 to 500 ft
< 800m
< 200 ft
Symbols :   Thunderstorms  Fog  Heavy snow  Heavy precipitations  Wind > 20 kt
SIGMETs :     Misc.  Thunderstorms  Icing  Turbulence  Mountain Waves  Volcanic Ashes






- Airport Elevation : 502 ft
- IATA code : ORK


EICK - Cork

CURRENT METAR :
  • 011230Z 33011KT 9999 BKN027 15/08 Q1015 NOSIG

EXPIRED METARs :
  • 011200Z 34011KT 300V010 9999 BKN027 15/08 Q1015 NOSIG
  • 011130Z 34011KT 320V020 9999 BKN026 15/08 Q1015 NOSIG
  • 011100Z 35011KT 300V020 9999 BKN026 15/08 Q1015 NOSIG
  • 011030Z 34012KT 9999 FEW020 BKN025 14/08 Q1015 NOSIG
  • 011000Z 36010KT 9999 FEW020 BKN025 14/07 Q1015 NOSIG

TAF TAF EICK
Valid from the 01 at 12:00 until the 02 at 12:00 UTC


011100Z 0112/0212 36011KT 9999 BKN025
BECMG 0118/0120 32007KT
PROB30
TEMPO 0206/0209 4000 -RA BKN007
TEMPO 0209/0212 4000 -RA BKN007



MET'MAP, your aeronautical weather chart ! - Copyright ORBIFLY December 2007 - Disclaimer

ORBIFLY MET'MAP TEAM :

Programming & Development : Alexandra Zaïnal
Concept & original design : Baudouin d'Aumeries
Assistance for programming : Marc-Olivier Méhu
Technical & hardware support : Manuel Goepfert

Contact : metmap@orbifly.com




SOURCES & CREDITS :

   NOAA